Time;durP1;ratioP1;P1;durP2;ratioP2;P2;SDS_P1;SDS_P2;PMS_P1;PMS_P2;Temp;Humidity;BMP_temperature;BMP_pressure;BME280_temperature;BME280_humidity;BME280_pressure;Samples;Min_cycle;Max_cycle;Signal;HPM_P1;HPM_P2
2024/01/21 00:00:15;;;;;;;7.37;6.80;;;21.60;46.40;;;;;;5042867;28;20460;-73
2024/01/21 00:02:43;;;;;;;7.10;6.50;;;21.60;46.30;;;;;;5034385;28;20484;-72
2024/01/21 00:05:11;;;;;;;6.90;6.40;;;21.60;46.30;;;;;;5041476;28;20472;-72
2024/01/21 00:07:41;;;;;;;6.17;5.67;;;21.50;46.20;;;;;;5050863;28;20472;-72
2024/01/21 00:10:10;;;;;;;7.60;6.90;;;21.50;46.20;;;;;;5050974;28;20440;-72
2024/01/21 00:12:38;;;;;;;7.30;6.60;;;21.50;46.20;;;;;;5083399;28;20475;-72
2024/01/21 00:15:08;;;;;;;6.40;5.90;;;21.50;46.20;;;;;;5043140;28;20454;-72
2024/01/21 00:17:36;;;;;;;6.57;6.00;;;21.50;46.10;;;;;;5049791;28;20460;-73
2024/01/21 00:20:06;;;;;;;5.80;5.30;;;21.50;46.10;;;;;;5049356;28;20854;-72
2024/01/21 00:22:34;;;;;;;7.33;6.73;;;21.50;46.10;;;;;;5042880;28;20770;-73
2024/01/21 00:25:04;;;;;;;6.97;6.37;;;21.50;46.10;;;;;;5041765;28;20954;-72
2024/01/21 00:27:32;;;;;;;6.67;6.17;;;21.50;46.00;;;;;;5043258;28;20462;-72
2024/01/21 00:30:01;;;;;;;5.87;5.43;;;21.40;46.00;;;;;;5043151;28;20563;-73
2024/01/21 00:32:29;;;;;;;6.67;6.03;;;21.40;46.00;;;;;;5038415;28;20949;-72
2024/01/21 00:34:57;;;;;;;6.30;5.80;;;21.40;46.00;;;;;;5050283;28;20481;-73
2024/01/21 00:37:25;;;;;;;7.10;6.40;;;21.40;45.90;;;;;;5050479;28;20820;-73
2024/01/21 00:39:54;;;;;;;7.70;7.00;;;21.40;45.90;;;;;;5047050;28;20454;-72
2024/01/21 00:42:23;;;;;;;6.53;5.97;;;21.40;45.90;;;;;;5086647;28;20462;-73
2024/01/21 00:44:52;;;;;;;6.73;6.13;;;21.40;45.90;;;;;;5050413;28;20615;-72
2024/01/21 00:47:20;;;;;;;6.03;5.53;;;21.40;45.90;;;;;;5049372;28;20435;-72
2024/01/21 00:49:48;;;;;;;7.20;6.50;;;21.40;45.90;;;;;;5049451;28;20785;-72
2024/01/21 00:52:16;;;;;;;6.30;5.80;;;21.40;45.90;;;;;;5055982;28;20951;-73
2024/01/21 00:54:45;;;;;;;6.90;6.30;;;21.30;45.90;;;;;;5057555;28;20448;-72
2024/01/21 00:57:13;;;;;;;6.37;5.87;;;21.30;45.90;;;;;;5050824;28;20466;-72
2024/01/21 00:59:43;;;;;;;6.93;6.33;;;21.30;45.80;;;;;;5047518;28;20482;-72
2024/01/21 01:02:11;;;;;;;6.20;5.70;;;21.30;45.80;;;;;;5054771;28;20433;-72
2024/01/21 01:04:40;;;;;;;6.07;5.57;;;21.30;45.80;;;;;;5047770;28;20463;-72
2024/01/21 01:07:08;;;;;;;7.03;6.43;;;21.30;45.80;;;;;;5048850;28;20545;-72
2024/01/21 01:09:36;;;;;;;7.10;6.50;;;21.30;45.80;;;;;;5048233;28;20454;-72
2024/01/21 01:12:05;;;;;;;6.50;6.00;;;21.30;45.80;;;;;;5048840;28;20464;-72
2024/01/21 01:14:35;;;;;;;6.70;6.20;;;21.30;45.80;;;;;;5047053;28;21005;-73
2024/01/21 01:17:04;;;;;;;6.00;5.50;;;21.20;45.80;;;;;;5048038;28;20966;-72
2024/01/21 01:19:33;;;;;;;6.57;6.07;;;21.20;45.80;;;;;;5035877;28;20473;-72
2024/01/21 01:22:02;;;;;;;6.93;6.33;;;21.20;45.80;;;;;;5050513;28;20455;-72
2024/01/21 01:24:30;;;;;;;7.10;6.50;;;21.20;45.80;;;;;;5047969;28;20503;-72
2024/01/21 01:26:58;;;;;;;6.10;5.70;;;21.20;45.80;;;;;;5054279;28;20442;-72
2024/01/21 01:29:27;;;;;;;7.10;6.60;;;21.20;45.80;;;;;;5040095;28;20459;-72
2024/01/21 01:31:55;;;;;;;7.00;6.33;;;21.20;45.80;;;;;;5059357;28;20477;-72
2024/01/21 01:34:24;;;;;;;5.87;5.40;;;21.20;45.80;;;;;;5050010;28;20463;-72
2024/01/21 01:36:53;;;;;;;7.00;6.40;;;21.10;45.80;;;;;;5049346;28;20471;-72
2024/01/21 01:39:21;;;;;;;6.70;6.10;;;21.10;45.80;;;;;;5052483;28;20444;-72
2024/01/21 01:41:49;;;;;;;6.73;6.13;;;21.10;45.80;;;;;;5053610;28;20439;-72
2024/01/21 01:44:18;;;;;;;6.80;6.20;;;21.10;45.80;;;;;;5045788;28;20970;-72
2024/01/21 01:46:46;;;;;;;5.97;5.47;;;21.10;45.80;;;;;;5046107;28;20455;-72
2024/01/21 01:49:15;;;;;;;6.50;5.90;;;21.10;45.80;;;;;;5053305;28;20443;-72
2024/01/21 01:51:45;;;;;;;6.40;5.90;;;21.00;45.80;;;;;;5052678;28;20428;-73
2024/01/21 01:54:14;;;;;;;5.70;5.30;;;21.00;45.80;;;;;;5053226;28;20451;-72
2024/01/21 01:56:42;;;;;;;7.60;7.00;;;21.00;45.80;;;;;;5049018;28;20502;-72
2024/01/21 01:59:13;;;;;;;6.27;5.87;;;21.00;45.80;;;;;;5048517;28;20459;-73
2024/01/21 02:01:41;;;;;;;6.20;5.70;;;21.00;45.80;;;;;;5035965;28;20958;-73
2024/01/21 02:04:11;;;;;;;6.10;5.60;;;21.00;45.80;;;;;;5038259;28;20506;-73
2024/01/21 02:06:40;;;;;;;6.10;5.70;;;21.00;45.80;;;;;;5044066;28;20486;-73
2024/01/21 02:09:10;;;;;;;6.27;5.80;;;21.00;45.80;;;;;;5046487;28;20534;-73
2024/01/21 02:11:38;;;;;;;6.23;5.70;;;21.00;45.80;;;;;;5047069;28;20475;-71
2024/01/21 02:14:07;;;;;;;6.80;6.07;;;21.00;45.80;;;;;;5052699;28;20559;-72
2024/01/21 02:16:36;;;;;;;6.43;5.93;;;21.00;45.80;;;;;;5050710;28;20445;-71
2024/01/21 02:19:07;;;;;;;6.20;5.60;;;21.00;45.80;;;;;;5043658;28;20455;-71
2024/01/21 02:21:36;;;;;;;6.37;5.80;;;21.00;45.80;;;;;;5058594;28;20451;-71
2024/01/21 02:24:06;;;;;;;7.00;5.73;;;21.00;45.80;;;;;;5053623;28;20928;-71
2024/01/21 02:26:34;;;;;;;5.93;5.40;;;21.00;45.80;;;;;;5051689;28;20448;-71
2024/01/21 02:29:03;;;;;;;6.23;5.60;;;21.00;45.80;;;;;;5048524;28;20480;-72
2024/01/21 02:31:31;;;;;;;6.10;5.50;;;21.00;45.80;;;;;;5036108;28;20494;-72
2024/01/21 02:33:59;;;;;;;6.13;5.60;;;20.90;45.80;;;;;;5038353;28;20951;-72
2024/01/21 02:36:27;;;;;;;8.30;6.50;;;20.90;45.80;;;;;;5052147;28;20510;-72
2024/01/21 02:38:56;;;;;;;6.20;5.70;;;20.90;45.80;;;;;;5052030;28;20421;-72
2024/01/21 02:41:25;;;;;;;6.83;6.23;;;20.90;45.80;;;;;;5052099;28;20488;-72
2024/01/21 02:43:53;;;;;;;6.13;5.63;;;20.90;45.80;;;;;;5046713;28;20862;-73
2024/01/21 02:46:22;;;;;;;6.50;5.90;;;20.90;45.80;;;;;;5052198;28;20439;-72
2024/01/21 02:48:50;;;;;;;6.23;5.50;;;20.90;45.80;;;;;;5051192;28;20482;-72
2024/01/21 02:51:18;;;;;;;6.00;5.50;;;20.90;45.80;;;;;;5045974;28;21100;-72
2024/01/21 02:53:46;;;;;;;6.63;6.03;;;20.90;45.70;;;;;;5046674;28;20470;-72
2024/01/21 02:56:21;;;;;;;7.07;6.43;;;20.90;45.80;;;;;;5052021;28;20490;-73
2024/01/21 02:58:52;;;;;;;6.50;5.80;;;20.80;45.80;;;;;;5045911;28;20448;-72
2024/01/21 03:01:20;;;;;;;6.60;6.00;;;20.80;45.80;;;;;;5039703;28;20924;-73
2024/01/21 03:03:51;;;;;;;6.83;6.33;;;20.80;45.80;;;;;;5051343;28;21174;-72
2024/01/21 03:06:19;;;;;;;7.03;6.07;;;20.80;45.80;;;;;;5050970;28;20443;-73
2024/01/21 03:08:48;;;;;;;6.67;6.07;;;20.80;45.80;;;;;;5046549;28;20566;-73
2024/01/21 03:11:16;;;;;;;5.80;5.40;;;20.80;45.80;;;;;;5057688;28;20943;-73
2024/01/21 03:13:44;;;;;;;6.30;5.80;;;20.70;45.80;;;;;;5058744;28;21016;-73
2024/01/21 03:16:14;;;;;;;6.50;6.00;;;20.70;45.80;;;;;;5051830;28;20435;-73
2024/01/21 03:18:42;;;;;;;7.10;6.40;;;20.70;45.80;;;;;;5046239;28;20460;-72
2024/01/21 03:21:11;;;;;;;6.97;6.40;;;20.70;45.80;;;;;;5043770;28;20960;-73
2024/01/21 03:23:39;;;;;;;6.30;5.70;;;20.70;45.90;;;;;;5046685;28;20456;-73
2024/01/21 03:26:07;;;;;;;7.60;6.87;;;20.70;45.90;;;;;;5049314;28;20448;-73
2024/01/21 03:28:36;;;;;;;7.50;6.70;;;20.70;45.90;;;;;;5050802;28;20516;-72
2024/01/21 03:31:04;;;;;;;6.53;5.60;;;20.70;46.00;;;;;;5045811;28;20505;-72
2024/01/21 03:33:34;;;;;;;6.30;5.80;;;20.70;45.90;;;;;;5048905;28;20474;-72
2024/01/21 03:36:03;;;;;;;6.20;5.70;;;20.70;45.90;;;;;;5043398;28;20566;-72
2024/01/21 03:38:31;;;;;;;6.57;6.07;;;20.60;45.90;;;;;;5050454;28;20427;-72
2024/01/21 03:40:59;;;;;;;6.43;5.93;;;20.60;45.90;;;;;;5048960;28;20934;-72
2024/01/21 03:43:27;;;;;;;6.77;6.17;;;20.60;45.90;;;;;;5046020;28;20466;-71
2024/01/21 03:45:55;;;;;;;6.10;5.60;;;20.60;46.00;;;;;;5041123;28;20459;-71
2024/01/21 03:48:24;;;;;;;6.70;6.10;;;20.60;46.00;;;;;;5051228;28;20540;-71
2024/01/21 03:50:54;;;;;;;6.27;5.77;;;20.60;46.00;;;;;;5048205;28;20454;-71
2024/01/21 03:53:22;;;;;;;6.33;5.83;;;20.60;46.00;;;;;;5042139;28;20486;-72
2024/01/21 03:55:50;;;;;;;7.33;6.00;;;20.60;46.00;;;;;;5050740;28;20446;-72
2024/01/21 03:58:18;;;;;;;6.63;6.13;;;20.60;46.00;;;;;;5047858;28;20458;-72
2024/01/21 04:00:46;;;;;;;6.17;5.67;;;20.60;46.00;;;;;;5051022;28;20459;-72
2024/01/21 04:03:15;;;;;;;7.33;6.63;;;20.60;46.00;;;;;;5062836;28;20547;-71
2024/01/21 04:05:43;;;;;;;8.27;6.40;;;20.50;46.00;;;;;;5050453;28;20515;-71
2024/01/21 04:08:13;;;;;;;6.17;5.67;;;20.50;46.00;;;;;;5046595;28;20487;-71
2024/01/21 04:10:41;;;;;;;7.40;6.70;;;20.50;46.00;;;;;;5048431;28;20451;-72
2024/01/21 04:13:10;;;;;;;6.80;6.20;;;20.50;46.00;;;;;;5051012;28;20439;-72
2024/01/21 04:15:39;;;;;;;6.60;6.00;;;20.50;46.00;;;;;;5044182;28;20457;-72
2024/01/21 04:18:07;;;;;;;6.30;5.70;;;20.50;46.00;;;;;;5050942;28;20470;-72
2024/01/21 04:20:35;;;;;;;6.13;5.57;;;20.40;45.90;;;;;;5050269;28;20526;-71
2024/01/21 04:23:04;;;;;;;6.03;5.60;;;20.40;45.80;;;;;;5044004;28;20461;-73
2024/01/21 04:25:33;;;;;;;6.20;5.80;;;20.40;45.80;;;;;;5042593;28;20541;-72
2024/01/21 04:28:01;;;;;;;6.60;6.03;;;20.40;45.70;;;;;;5044213;28;20484;-72
2024/01/21 04:30:30;;;;;;;6.77;6.27;;;20.50;45.70;;;;;;5040302;28;20472;-72
2024/01/21 04:32:58;;;;;;;7.77;7.07;;;20.50;45.70;;;;;;5053837;28;20465;-72
2024/01/21 04:35:26;;;;;;;7.53;6.80;;;20.50;45.60;;;;;;5054191;28;20494;-72
2024/01/21 04:37:54;;;;;;;6.70;6.07;;;20.50;45.60;;;;;;5054785;28;20420;-72
2024/01/21 04:40:22;;;;;;;7.07;6.47;;;20.50;45.50;;;;;;5053860;28;20462;-72
2024/01/21 04:42:52;;;;;;;6.80;6.10;;;20.50;45.60;;;;;;5041503;28;20516;-72
2024/01/21 04:45:20;;;;;;;6.53;6.03;;;20.60;45.60;;;;;;5042892;28;21573;-72
2024/01/21 04:47:48;;;;;;;7.57;6.97;;;20.60;45.60;;;;;;5058209;28;20548;-72
2024/01/21 04:50:17;;;;;;;7.70;5.80;;;20.60;45.60;;;;;;5066184;28;20458;-73
2024/01/21 04:52:45;;;;;;;6.13;5.63;;;20.60;45.60;;;;;;5058615;28;20461;-72
2024/01/21 04:55:13;;;;;;;6.57;6.07;;;20.60;45.60;;;;;;5053878;28;20475;-72
2024/01/21 04:57:41;;;;;;;6.07;5.63;;;20.70;45.60;;;;;;5054719;28;20427;-73
2024/01/21 05:00:13;;;;;;;6.80;6.20;;;20.70;45.70;;;;;;5043216;28;20542;-72
2024/01/21 05:02:42;;;;;;;6.10;5.70;;;20.70;45.70;;;;;;5052462;28;20835;-73
2024/01/21 05:05:10;;;;;;;6.60;6.10;;;20.70;45.60;;;;;;5045530;28;20545;-72
2024/01/21 05:07:38;;;;;;;5.97;5.40;;;20.70;45.70;;;;;;5049908;28;20483;-73
2024/01/21 05:10:07;;;;;;;6.40;5.80;;;20.80;45.70;;;;;;5036557;28;20462;-73
2024/01/21 05:12:35;;;;;;;6.87;6.27;;;20.80;45.70;;;;;;5038113;28;20458;-73
2024/01/21 05:15:04;;;;;;;6.00;5.50;;;20.90;45.70;;;;;;5042645;28;20533;-73
2024/01/21 05:17:34;;;;;;;7.17;6.53;;;20.90;45.70;;;;;;5044193;28;20462;-73
2024/01/21 05:20:03;;;;;;;6.80;6.20;;;20.90;45.70;;;;;;5045329;28;20934;-73
2024/01/21 05:22:31;;;;;;;6.50;6.00;;;20.90;45.70;;;;;;5039937;28;20456;-72
2024/01/21 05:24:59;;;;;;;7.53;6.90;;;21.00;45.70;;;;;;5050007;28;20462;-72
2024/01/21 05:27:27;;;;;;;7.10;6.50;;;21.00;45.70;;;;;;5050579;28;20476;-72
2024/01/21 05:29:56;;;;;;;6.50;5.87;;;21.00;45.70;;;;;;5051765;28;20442;-72
2024/01/21 05:32:24;;;;;;;6.90;6.30;;;21.10;45.70;;;;;;5043341;28;21049;-72
2024/01/21 05:34:54;;;;;;;6.80;6.27;;;21.10;45.60;;;;;;5045741;28;20463;-72
2024/01/21 05:37:22;;;;;;;6.60;5.80;;;21.10;45.60;;;;;;5048958;28;20455;-72
2024/01/21 05:39:50;;;;;;;5.60;5.20;;;21.10;45.70;;;;;;5061133;28;21365;-72
2024/01/21 05:42:19;;;;;;;6.00;5.47;;;21.10;45.80;;;;;;5064268;28;20458;-72
2024/01/21 05:44:47;;;;;;;6.80;6.30;;;21.10;45.90;;;;;;5047431;28;20460;-72
2024/01/21 05:47:15;;;;;;;6.10;5.50;;;21.10;46.00;;;;;;5048610;28;20463;-73
2024/01/21 05:49:43;;;;;;;5.97;5.47;;;21.10;46.10;;;;;;5059478;28;20453;-75
2024/01/21 05:52:13;;;;;;;7.07;6.37;;;21.10;46.10;;;;;;5052348;28;20458;-75
2024/01/21 05:54:42;;;;;;;6.97;5.60;;;21.10;46.20;;;;;;5035931;28;20465;-74
2024/01/21 05:57:10;;;;;;;6.83;6.23;;;21.10;46.40;;;;;;5052947;28;20466;-76
2024/01/21 05:59:38;;;;;;;7.37;5.43;;;21.10;46.70;;;;;;5055782;28;20492;-75
2024/01/21 06:02:10;;;;;;;6.70;6.10;;;21.10;47.00;;;;;;5046658;28;20460;-67
2024/01/21 06:04:40;;;;;;;5.77;5.23;;;21.00;47.20;;;;;;5049355;28;20539;-74
2024/01/21 06:07:08;;;;;;;8.00;5.30;;;21.00;47.30;;;;;;5045313;28;20490;-75
2024/01/21 06:09:38;;;;;;;7.00;6.23;;;21.00;47.40;;;;;;5050123;28;20497;-75
2024/01/21 06:12:06;;;;;;;6.80;6.10;;;21.00;47.40;;;;;;5060359;28;20444;-75
2024/01/21 06:14:34;;;;;;;6.63;5.93;;;21.00;47.40;;;;;;5062171;28;20467;-75
2024/01/21 06:17:03;;;;;;;8.13;5.80;;;21.00;47.40;;;;;;5052512;28;20435;-75
2024/01/21 06:19:31;;;;;;;10.50;5.20;;;20.90;47.50;;;;;;5044256;28;20456;-74
2024/01/21 06:22:00;;;;;;;7.60;5.50;;;20.90;47.70;;;;;;5036079;28;20539;-74
2024/01/21 06:24:28;;;;;;;6.13;5.53;;;20.90;47.80;;;;;;5043852;28;20512;-75
2024/01/21 06:26:58;;;;;;;7.30;5.40;;;20.90;47.90;;;;;;5044600;28;20799;-75
2024/01/21 06:29:26;;;;;;;5.63;5.23;;;20.90;48.00;;;;;;5049374;28;20494;-75
2024/01/21 06:31:55;;;;;;;6.43;5.73;;;20.90;48.00;;;;;;5045632;28;20528;-75
2024/01/21 06:34:23;;;;;;;9.27;6.47;;;21.00;48.00;;;;;;5042824;28;20456;-75
2024/01/21 06:36:52;;;;;;;9.60;5.63;;;21.00;47.90;;;;;;5041245;28;20451;-75
2024/01/21 06:39:20;;;;;;;6.97;6.23;;;21.00;47.80;;;;;;5043065;28;20484;-75
2024/01/21 06:41:48;;;;;;;7.07;6.07;;;21.00;47.60;;;;;;5051485;28;20423;-75
2024/01/21 06:44:18;;;;;;;7.00;5.80;;;21.00;47.50;;;;;;5050510;28;20447;-75
2024/01/21 06:46:46;;;;;;;6.17;5.57;;;21.00;47.30;;;;;;5051228;28;20444;-75
2024/01/21 06:49:14;;;;;;;7.10;6.17;;;21.00;47.20;;;;;;5051673;28;20431;-75
2024/01/21 06:51:46;;;;;;;7.20;5.80;;;21.00;47.20;;;;;;5050017;28;20794;-74
2024/01/21 06:54:15;;;;;;;5.87;5.13;;;21.00;47.20;;;;;;5043003;28;20455;-74
2024/01/21 06:56:43;;;;;;;5.57;5.07;;;21.00;47.10;;;;;;5047230;28;20993;-74
2024/01/21 06:59:12;;;;;;;6.63;6.10;;;21.00;47.10;;;;;;5045950;28;20478;-75
2024/01/21 07:01:42;;;;;;;6.80;5.40;;;21.00;47.10;;;;;;5046831;28;20462;-75
2024/01/21 07:04:10;;;;;;;6.43;5.70;;;20.90;47.10;;;;;;5046938;28;20447;-74
2024/01/21 07:06:40;;;;;;;6.30;5.70;;;20.90;47.00;;;;;;5035109;28;20464;-75
2024/01/21 07:09:09;;;;;;;5.57;4.97;;;20.90;47.00;;;;;;5049522;28;20463;-75
2024/01/21 07:11:41;;;;;;;5.77;5.27;;;20.90;47.00;;;;;;5038763;28;20688;-75
2024/01/21 07:14:09;;;;;;;5.60;5.10;;;20.90;47.00;;;;;;5045881;28;20806;-74
2024/01/21 07:16:38;;;;;;;6.40;5.90;;;20.90;47.10;;;;;;5046028;28;20479;-75
2024/01/21 07:19:07;;;;;;;5.40;4.93;;;20.90;47.10;;;;;;5044353;28;20540;-75
2024/01/21 07:21:36;;;;;;;5.47;4.97;;;20.90;47.10;;;;;;5042878;28;20577;-76
2024/01/21 07:24:04;;;;;;;5.30;4.90;;;20.90;47.10;;;;;;5044255;28;20596;-75
2024/01/21 07:26:33;;;;;;;6.50;4.90;;;20.90;47.10;;;;;;5051632;28;20936;-75
2024/01/21 07:29:01;;;;;;;6.13;5.73;;;20.90;47.10;;;;;;5043962;28;20512;-74
2024/01/21 07:31:29;;;;;;;7.03;5.30;;;20.90;47.10;;;;;;5042914;28;20452;-75
2024/01/21 07:33:58;;;;;;;6.40;5.77;;;20.90;47.10;;;;;;5030902;28;20481;-74
2024/01/21 07:36:28;;;;;;;6.27;5.87;;;20.90;47.10;;;;;;5041307;28;20486;-74
2024/01/21 07:38:56;;;;;;;5.90;4.87;;;20.90;47.10;;;;;;5050640;28;20430;-75
2024/01/21 07:41:24;;;;;;;6.57;5.70;;;20.90;47.00;;;;;;5045247;28;20859;-75
2024/01/21 07:43:52;;;;;;;5.47;4.77;;;21.00;47.00;;;;;;5031889;28;20445;-75
2024/01/21 07:46:21;;;;;;;5.17;4.67;;;21.00;46.90;;;;;;5048443;28;20810;-75
2024/01/21 07:48:49;;;;;;;5.47;5.07;;;21.00;46.90;;;;;;5050727;28;20839;-75
2024/01/21 07:51:18;;;;;;;6.07;5.47;;;21.00;46.80;;;;;;5050930;28;20438;-75
2024/01/21 07:53:48;;;;;;;6.90;5.90;;;21.00;46.80;;;;;;5043106;28;20447;-75
2024/01/21 07:56:16;;;;;;;6.53;5.10;;;21.00;46.70;;;;;;5042353;28;20522;-75
2024/01/21 07:58:44;;;;;;;5.60;5.20;;;21.00;46.70;;;;;;5033820;28;20761;-75
2024/01/21 08:01:13;;;;;;;5.20;4.80;;;21.00;46.60;;;;;;5037210;28;20787;-75
2024/01/21 08:03:41;;;;;;;4.93;4.53;;;21.00;46.60;;;;;;5043469;28;20543;-75
2024/01/21 08:06:10;;;;;;;5.07;4.47;;;21.00;46.60;;;;;;5045739;28;20463;-75
2024/01/21 08:08:38;;;;;;;5.67;5.20;;;21.00;46.50;;;;;;5047363;28;20607;-75
2024/01/21 08:11:08;;;;;;;5.40;4.47;;;21.00;46.30;;;;;;5052270;28;20460;-75
2024/01/21 08:13:36;;;;;;;5.70;5.27;;;21.00;46.30;;;;;;5051468;28;20458;-75
2024/01/21 08:16:05;;;;;;;5.63;5.23;;;21.00;46.20;;;;;;5051180;28;20474;-74
2024/01/21 08:18:33;;;;;;;5.50;5.10;;;21.00;46.50;;;;;;5049551;28;20551;-75
2024/01/21 08:21:05;;;;;;;5.47;5.07;;;21.00;46.60;;;;;;5047731;28;20535;-75
2024/01/21 08:23:34;;;;;;;5.83;5.33;;;21.00;46.60;;;;;;5043207;28;20448;-75
2024/01/21 08:26:05;;;;;;;4.50;4.10;;;21.00;46.60;;;;;;5051288;28;20919;-75
2024/01/21 08:28:34;;;;;;;5.57;5.07;;;21.00;46.50;;;;;;5041322;28;20457;-75
2024/01/21 08:31:03;;;;;;;4.33;3.93;;;21.00;46.50;;;;;;5037545;28;20456;-75
2024/01/21 08:33:34;;;;;;;5.97;4.70;;;21.00;46.50;;;;;;5048004;28;20448;-75
2024/01/21 08:36:03;;;;;;;5.40;4.90;;;21.00;46.50;;;;;;5038456;28;20514;-75
2024/01/21 08:38:31;;;;;;;7.00;6.37;;;21.00;46.50;;;;;;5039584;28;20463;-75
2024/01/21 08:40:59;;;;;;;5.27;4.83;;;21.00;46.50;;;;;;5048033;28;20447;-74
2024/01/21 08:43:28;;;;;;;4.20;3.90;;;21.00;46.50;;;;;;5048567;28;20553;-73
2024/01/21 08:45:58;;;;;;;5.70;5.20;;;21.00;46.50;;;;;;5051801;28;20459;-74
2024/01/21 08:48:27;;;;;;;5.00;4.60;;;21.00;46.40;;;;;;5046885;28;20552;-74
2024/01/21 08:50:56;;;;;;;5.53;5.13;;;21.10;46.30;;;;;;5035992;28;20455;-75
2024/01/21 08:53:24;;;;;;;5.40;4.90;;;21.10;46.30;;;;;;5037195;28;20456;-74
2024/01/21 08:55:53;;;;;;;5.50;5.03;;;21.10;45.90;;;;;;5044479;28;20524;-74
2024/01/21 08:58:21;;;;;;;5.07;4.67;;;21.20;45.60;;;;;;5048228;28;20458;-74
2024/01/21 09:00:49;;;;;;;5.70;5.23;;;21.20;46.00;;;;;;5048890;28;20481;-74
2024/01/21 09:03:20;;;;;;;6.03;5.53;;;21.20;44.90;;;;;;5050728;28;20473;-74
2024/01/21 09:05:48;;;;;;;6.37;5.87;;;21.10;44.80;;;;;;5044996;28;20482;-74
2024/01/21 09:08:17;;;;;;;5.97;5.47;;;21.00;45.10;;;;;;5047532;28;20541;-73
2024/01/21 09:10:45;;;;;;;5.20;4.80;;;21.00;45.10;;;;;;5041770;28;20455;-76
2024/01/21 09:13:13;;;;;;;4.70;4.30;;;21.00;46.00;;;;;;5044740;28;20468;-74
2024/01/21 09:15:42;;;;;;;6.10;5.60;;;21.00;46.20;;;;;;5046950;28;20462;-74
2024/01/21 09:18:11;;;;;;;5.17;4.77;;;21.00;45.90;;;;;;5052675;28;20801;-73
2024/01/21 09:20:40;;;;;;;5.40;4.50;;;20.90;46.30;;;;;;5051615;28;20462;-73
2024/01/21 09:23:08;;;;;;;5.33;4.87;;;20.90;46.90;;;;;;5053333;28;20501;-73
2024/01/21 09:25:37;;;;;;;5.20;4.70;;;20.90;46.30;;;;;;5044913;28;20497;-74
2024/01/21 09:28:06;;;;;;;5.23;4.83;;;20.90;47.10;;;;;;5048398;28;20453;-73
2024/01/21 09:30:35;;;;;;;5.67;3.70;;;20.90;46.90;;;;;;5050112;28;21012;-73
2024/01/21 09:33:04;;;;;;;4.47;4.10;;;20.90;47.60;;;;;;5051507;28;20511;-74
2024/01/21 09:35:34;;;;;;;5.30;4.83;;;20.90;47.70;;;;;;5077737;28;20800;-72
2024/01/21 09:38:04;;;;;;;5.40;4.13;;;21.00;47.30;;;;;;5051828;28;20472;-75
2024/01/21 09:40:32;;;;;;;5.43;4.90;;;21.00;47.10;;;;;;5043292;28;20562;-74
2024/01/21 09:43:00;;;;;;;5.40;4.90;;;21.00;46.40;;;;;;5049083;28;20451;-74
2024/01/21 09:45:31;;;;;;;6.53;4.40;;;21.00;46.10;;;;;;5051886;28;20838;-73
2024/01/21 09:48:01;;;;;;;4.33;4.03;;;21.00;45.70;;;;;;5051906;28;20432;-75
2024/01/21 09:50:31;;;;;;;5.53;4.90;;;21.10;46.50;;;;;;5051735;28;20462;-74
2024/01/21 09:53:00;;;;;;;4.27;3.97;;;21.10;47.00;;;;;;5052923;28;20441;-75
2024/01/21 09:55:29;;;;;;;4.50;4.20;;;21.10;47.00;;;;;;5050060;28;20516;-75
2024/01/21 09:58:02;;;;;;;4.13;3.80;;;21.10;46.50;;;;;;5044252;28;20479;-75
2024/01/21 10:00:32;;;;;;;5.20;4.80;;;21.20;47.10;;;;;;5042737;28;20514;-74
2024/01/21 10:03:00;;;;;;;4.63;4.27;;;21.20;46.80;;;;;;5045707;28;20534;-74
2024/01/21 10:05:28;;;;;;;4.40;4.00;;;21.20;46.80;;;;;;5045335;28;20467;-75
2024/01/21 10:07:57;;;;;;;5.33;4.60;;;21.20;46.80;;;;;;5044362;28;20524;-73
2024/01/21 10:10:25;;;;;;;4.53;4.23;;;21.20;46.50;;;;;;5075788;28;20482;-74
2024/01/21 10:12:55;;;;;;;4.10;3.80;;;21.20;46.70;;;;;;5052766;28;20425;-74
2024/01/21 10:15:23;;;;;;;6.67;4.70;;;21.20;46.20;;;;;;5044392;28;20938;-74
2024/01/21 10:17:52;;;;;;;3.93;3.53;;;21.10;45.90;;;;;;5046975;28;20487;-74
2024/01/21 10:20:20;;;;;;;4.40;4.10;;;21.10;46.00;;;;;;5044097;28;20602;-73
2024/01/21 10:22:48;;;;;;;4.93;4.53;;;21.10;46.20;;;;;;5052756;28;20498;-73
2024/01/21 10:25:17;;;;;;;4.07;3.70;;;21.10;46.70;;;;;;5040876;28;20457;-75
2024/01/21 10:27:46;;;;;;;4.17;3.87;;;21.10;46.90;;;;;;5047600;28;20439;-75
2024/01/21 10:30:16;;;;;;;3.70;3.40;;;21.10;47.10;;;;;;5043545;28;20464;-74
2024/01/21 10:32:44;;;;;;;4.20;3.90;;;21.10;46.90;;;;;;5067994;28;20474;-75
2024/01/21 10:35:13;;;;;;;4.53;4.13;;;21.10;46.20;;;;;;5050276;28;20523;-74
2024/01/21 10:37:42;;;;;;;3.50;3.20;;;21.10;47.00;;;;;;5051380;28;20476;-75
2024/01/21 10:40:11;;;;;;;6.27;4.73;;;21.10;46.10;;;;;;5052388;28;20436;-74
2024/01/21 10:42:41;;;;;;;4.60;4.20;;;21.10;46.50;;;;;;5033632;28;20447;-72
2024/01/21 10:45:11;;;;;;;5.47;5.00;;;21.10;46.30;;;;;;5049017;28;20447;-74
2024/01/21 10:47:43;;;;;;;3.60;3.30;;;21.10;46.10;;;;;;5050900;28;20439;-75
2024/01/21 10:50:12;;;;;;;5.10;4.67;;;21.10;46.50;;;;;;5050426;28;20449;-75
2024/01/21 10:52:44;;;;;;;5.13;4.63;;;21.00;46.00;;;;;;5052654;28;20430;-75
2024/01/21 10:55:13;;;;;;;4.43;4.13;;;21.00;46.50;;;;;;5044067;28;20517;-76
2024/01/21 10:57:42;;;;;;;4.63;4.23;;;21.00;46.40;;;;;;5046787;28;20476;-76
2024/01/21 11:00:12;;;;;;;5.83;5.00;;;21.00;46.80;;;;;;5046199;28;20456;-76
2024/01/21 11:02:41;;;;;;;5.90;4.60;;;21.00;46.70;;;;;;5046021;28;20463;-76
2024/01/21 11:05:10;;;;;;;7.67;5.43;;;21.00;46.10;;;;;;5050638;28;20935;-75
2024/01/21 11:07:42;;;;;;;4.40;3.43;;;20.90;46.10;;;;;;5049422;28;20570;-76
2024/01/21 11:10:11;;;;;;;5.80;5.00;;;20.90;46.20;;;;;;5049488;28;20523;-76
2024/01/21 11:12:39;;;;;;;5.60;4.23;;;20.90;46.00;;;;;;5051992;28;20455;-74
2024/01/21 11:15:29;;;;;;;4.40;4.00;;;20.90;46.50;;;;;;5039163;28;20953;-73
2024/01/21 11:18:12;;;;;;;4.50;3.87;;;20.90;46.30;;;;;;5042334;28;20515;-77
2024/01/21 11:20:56;;;;;;;5.47;3.57;;;20.90;46.20;;;;;;5043483;28;20458;-75
2024/01/21 11:23:24;;;;;;;6.10;3.87;;;20.90;47.20;;;;;;5031445;28;20466;-77
2024/01/21 11:25:54;;;;;;;4.10;3.70;;;20.90;46.40;;;;;;5034871;28;20452;-77
2024/01/21 11:28:27;;;;;;;5.23;4.77;;;20.90;46.60;;;;;;5051793;28;20478;-77
2024/01/21 11:31:03;;;;;;;3.90;3.70;;;21.00;46.40;;;;;;5042084;28;20467;-77
2024/01/21 11:33:33;;;;;;;4.50;3.60;;;20.90;46.40;;;;;;5038005;28;20796;-75
2024/01/21 11:36:01;;;;;;;3.60;3.17;;;21.00;46.80;;;;;;5039921;28;20475;-77
2024/01/21 11:38:30;;;;;;;4.10;3.70;;;21.00;47.00;;;;;;5044546;28;20473;-75
2024/01/21 11:41:03;;;;;;;4.73;3.87;;;21.10;47.00;;;;;;5045168;28;20959;-77
2024/01/21 11:43:32;;;;;;;3.63;3.20;;;21.10;46.50;;;;;;5048837;28;20455;-77
2024/01/21 11:46:03;;;;;;;4.07;3.67;;;21.10;46.60;;;;;;5044366;28;20460;-76
2024/01/21 11:48:33;;;;;;;4.13;3.73;;;21.10;46.40;;;;;;5034187;28;20456;-75
2024/01/21 11:51:01;;;;;;;4.03;3.60;;;21.10;46.50;;;;;;5035140;28;20487;-78
2024/01/21 11:53:29;;;;;;;4.70;4.20;;;21.10;46.10;;;;;;5050739;28;20452;-78
2024/01/21 11:55:57;;;;;;;5.00;3.97;;;21.10;46.10;;;;;;5041405;28;20470;-75
2024/01/21 11:58:26;;;;;;;3.03;2.83;;;21.20;46.20;;;;;;5043238;28;20469;-77
2024/01/21 12:00:54;;;;;;;4.60;4.20;;;21.20;46.60;;;;;;5044835;28;20457;-76
2024/01/21 12:03:22;;;;;;;4.40;3.73;;;21.20;46.00;;;;;;5043250;28;20549;-77
2024/01/21 12:05:52;;;;;;;4.10;3.73;;;21.30;45.80;;;;;;5043753;28;20856;-77
2024/01/21 12:08:21;;;;;;;4.20;3.80;;;21.30;45.70;;;;;;5047781;28;20496;-73
2024/01/21 12:10:51;;;;;;;3.17;2.97;;;21.30;45.60;;;;;;5032419;28;20462;-76
2024/01/21 12:13:21;;;;;;;4.00;3.70;;;21.40;45.80;;;;;;5050970;28;20758;-77
2024/01/21 12:15:50;;;;;;;4.00;3.60;;;21.40;45.60;;;;;;5047683;28;20432;-78
2024/01/21 12:18:18;;;;;;;3.50;3.20;;;21.40;45.40;;;;;;5042421;28;20475;-76
2024/01/21 12:20:47;;;;;;;4.23;3.63;;;21.40;45.80;;;;;;5050003;28;20451;-75
2024/01/21 12:23:22;;;;;;;4.57;4.13;;;21.40;45.60;;;;;;5047129;28;20482;-78
2024/01/21 12:25:51;;;;;;;3.67;3.37;;;21.30;45.10;;;;;;5045569;28;20471;-75
2024/01/21 12:28:21;;;;;;;6.03;3.90;;;21.30;45.10;;;;;;5046231;28;21032;-77
2024/01/21 12:30:50;;;;;;;3.70;3.40;;;21.30;45.30;;;;;;5046148;28;20522;-77
2024/01/21 12:33:18;;;;;;;3.70;3.40;;;21.30;45.20;;;;;;5048224;28;20521;-77
2024/01/21 12:35:48;;;;;;;4.30;3.90;;;21.20;45.30;;;;;;5048028;28;20440;-77
2024/01/21 12:38:16;;;;;;;3.50;3.00;;;21.20;45.20;;;;;;5047665;28;20911;-77
2024/01/21 12:40:46;;;;;;;3.33;3.10;;;21.20;45.80;;;;;;5048345;28;20769;-75
2024/01/21 12:43:16;;;;;;;3.13;2.93;;;21.30;45.60;;;;;;5048490;28;20440;-77
2024/01/21 12:45:44;;;;;;;3.23;2.93;;;21.30;45.70;;;;;;5044061;28;20947;-77
2024/01/21 12:48:13;;;;;;;3.43;3.00;;;21.40;45.70;;;;;;5043165;28;20466;-71
2024/01/21 12:50:43;;;;;;;3.27;3.07;;;21.40;45.80;;;;;;5048187;28;20462;-77
2024/01/21 12:53:11;;;;;;;3.70;2.70;;;21.40;45.40;;;;;;5054436;28;20959;-76
2024/01/21 12:55:39;;;;;;;2.87;2.67;;;21.50;45.70;;;;;;5047799;28;21004;-77